createdAt,value
2018-06-12T00:00:28.407Z,88.31
2018-06-12T00:01:28.402Z,89.18
2018-06-12T00:02:28.396Z,89.75
2018-06-12T00:03:28.391Z,89.94
2018-06-12T00:04:28.388Z,90.23
2018-06-12T00:05:28.383Z,90.19
2018-06-12T00:06:28.380Z,90.14
2018-06-12T00:07:28.373Z,90.90
2018-06-12T00:08:28.369Z,91.05
2018-06-12T00:09:28.363Z,91.24
2018-06-12T00:10:28.357Z,91.34
2018-06-12T00:11:28.353Z,91.05
2018-06-12T00:12:28.348Z,90.86
2018-06-12T00:13:28.343Z,91.24
2018-06-12T00:14:28.337Z,91.05
2018-06-12T00:15:28.334Z,91.72
2018-06-12T00:16:28.328Z,90.76
2018-06-12T00:17:28.325Z,91.05
2018-06-12T00:18:28.327Z,91.91
2018-06-12T00:19:28.312Z,93.44
2018-06-12T00:20:28.308Z,93.73
2018-06-12T00:21:28.302Z,93.06
2018-06-12T00:22:28.296Z,93.54
2018-06-12T00:23:28.291Z,93.26
2018-06-12T00:24:28.286Z,93.69
2018-06-12T00:25:28.281Z,92.49
2018-06-12T00:26:28.277Z,92.58
2018-06-12T00:27:28.275Z,92.44
2018-06-12T00:28:28.265Z,93.02
2018-06-12T00:29:28.260Z,92.58
2018-06-12T00:30:28.254Z,92.92
2018-06-12T00:31:28.249Z,91.58
2018-06-12T00:32:28.244Z,92.35
2018-06-12T00:33:28.238Z,92.25
2018-06-12T00:34:28.237Z,91.86
2018-06-12T00:35:28.227Z,92.30
2018-06-12T00:36:28.223Z,91.77
2018-06-12T00:37:28.216Z,91.96
2018-06-12T00:38:28.211Z,92.82
2018-06-12T00:39:28.205Z,92.15
2018-06-12T00:40:28.199Z,92.06
2018-06-12T00:41:28.205Z,92.58
2018-06-12T00:42:28.188Z,92.15
2018-06-12T00:43:28.182Z,91.77
2018-06-12T00:44:28.178Z,92.06
2018-06-12T00:45:28.172Z,92.06
2018-06-12T00:46:28.165Z,92.06
2018-06-12T00:47:28.160Z,92.06
2018-06-12T00:48:28.160Z,92.06
2018-06-12T00:49:28.149Z,92.15
2018-06-12T00:50:28.143Z,92.25
2018-06-12T00:51:28.339Z,91.19
2018-06-12T00:52:28.132Z,91.77
2018-06-12T00:53:28.128Z,92.15
2018-06-12T00:54:28.120Z,90.81
2018-06-12T00:55:28.115Z,91.19
2018-06-12T00:56:28.110Z,91.19
2018-06-12T00:57:28.105Z,91.49
2018-06-12T00:58:28.099Z,91.10
2018-06-12T00:59:28.093Z,90.91
2018-06-12T01:00:28.088Z,92.25
2018-06-12T01:01:28.082Z,91.05
2018-06-12T01:02:28.076Z,92.15
2018-06-12T01:03:28.073Z,92.44
2018-06-12T01:04:28.065Z,93.02
2018-06-12T01:05:28.060Z,92.63
2018-06-12T01:06:28.053Z,93.21
2018-06-12T01:07:28.048Z,92.82
2018-06-12T01:08:28.044Z,93.21
2018-06-12T01:09:28.037Z,94.07
2018-06-12T01:10:28.031Z,93.98
2018-06-12T01:11:28.026Z,93.21
2018-06-12T01:12:28.025Z,94.35
2018-06-12T01:13:28.015Z,94.64
2018-06-12T01:14:28.010Z,94.07
2018-06-12T01:15:28.004Z,94.35
2018-06-12T01:16:27.997Z,94.93
2018-06-12T01:17:27.994Z,94.84
2018-06-12T01:18:27.989Z,95.03
2018-06-12T01:19:27.985Z,95.03
2018-06-12T01:20:27.975Z,95.03
2018-06-12T01:21:27.969Z,95.41
2018-06-12T01:22:27.963Z,95.12
2018-06-12T01:23:27.958Z,95.03
2018-06-12T01:24:27.953Z,94.74
2018-06-12T01:25:27.947Z,95.07
2018-06-12T01:26:27.985Z,94.50
2018-06-12T01:27:27.935Z,94.79
2018-06-12T01:28:27.929Z,94.50
2018-06-12T01:29:27.923Z,94.60
2018-06-12T01:30:27.917Z,94.60
2018-06-12T01:31:27.911Z,94.12
2018-06-12T01:32:27.909Z,94.40
2018-06-12T01:33:28.102Z,94.60
2018-06-12T01:34:27.894Z,94.60
2018-06-12T01:35:27.889Z,94.60
2018-06-12T01:36:27.881Z,95.36
2018-06-12T01:37:27.878Z,95.17
2018-06-12T01:38:27.869Z,94.98
2018-06-12T01:39:27.863Z,95.36
2018-06-12T01:40:27.858Z,95.56
2018-06-12T01:41:27.854Z,95.84
2018-06-12T01:42:27.849Z,96.89
2018-06-12T01:43:27.839Z,97.09
2018-06-12T01:44:27.834Z,96.32
2018-06-12T01:45:27.828Z,95.65
2018-06-12T01:46:27.822Z,96.32
2018-06-12T01:47:27.819Z,96.22
2018-06-12T01:48:27.810Z,95.94
2018-06-12T01:49:27.807Z,95.36
2018-06-12T01:50:27.798Z,95.46
2018-06-12T01:51:27.799Z,95.75
2018-06-12T01:52:27.788Z,95.46
2018-06-12T01:53:27.781Z,94.98
2018-06-12T01:54:27.775Z,94.79
2018-06-12T01:55:27.772Z,94.69
2018-06-12T01:56:27.763Z,96.03
2018-06-12T01:57:27.757Z,95.75
2018-06-12T01:58:27.753Z,95.75
2018-06-12T01:59:27.745Z,95.75
2018-06-12T02:00:27.738Z,95.27
2018-06-12T02:01:27.736Z,96.22
2018-06-12T02:02:27.730Z,97.09
2018-06-12T02:03:27.720Z,96.03
2018-06-12T02:04:27.715Z,96.61
2018-06-12T02:05:27.709Z,96.61
2018-06-12T02:06:27.702Z,95.56
2018-06-12T02:07:27.696Z,96.32
2018-06-12T02:08:27.691Z,95.75
2018-06-12T02:09:27.685Z,95.65
2018-06-12T02:10:27.678Z,95.65
2018-06-12T02:11:27.672Z,96.32
2018-06-12T02:12:27.667Z,95.56
2018-06-12T02:13:27.666Z,95.65
2018-06-12T02:14:27.664Z,96.32
2018-06-12T02:15:27.649Z,95.36
2018-06-12T02:16:27.648Z,95.46
2018-06-12T02:17:27.638Z,96.32
2018-06-12T02:18:27.630Z,96.70
2018-06-12T02:19:27.625Z,96.27
2018-06-12T02:20:27.619Z,96.89
2018-06-12T02:21:27.613Z,95.65
2018-06-12T02:22:27.609Z,95.61
2018-06-12T02:23:27.601Z,95.36
2018-06-12T02:24:27.595Z,95.70
2018-06-12T02:25:27.590Z,96.27
2018-06-12T02:26:27.583Z,96.84
2018-06-12T02:27:27.577Z,96.70
2018-06-12T02:28:27.576Z,97.04
2018-06-12T02:29:27.569Z,96.84
2018-06-12T02:30:27.559Z,96.37
2018-06-12T02:31:27.554Z,96.94
2018-06-12T02:32:27.547Z,96.56
2018-06-12T02:33:27.541Z,97.13
2018-06-12T02:34:27.543Z,97.23
2018-06-12T02:35:27.528Z,96.84
2018-06-12T02:36:27.522Z,97.23
2018-06-12T02:37:27.517Z,97.38
2018-06-12T02:38:27.510Z,97.33
2018-06-12T02:39:27.504Z,97.28
2018-06-12T02:40:27.498Z,96.70
2018-06-12T02:41:27.493Z,96.27
2018-06-12T02:42:27.486Z,97.18
2018-06-12T02:43:27.480Z,96.99
2018-06-12T02:44:27.494Z,97.13
2018-06-12T02:45:27.474Z,97.23
2018-06-12T02:46:27.463Z,96.47
2018-06-12T02:47:27.457Z,97.13
2018-06-12T02:48:27.457Z,96.08
2018-06-12T02:49:27.447Z,96.66
2018-06-12T02:50:27.440Z,97.23
2018-06-12T02:51:27.433Z,97.23
2018-06-12T02:52:27.428Z,96.94
2018-06-12T02:53:27.422Z,96.94
2018-06-12T02:54:27.415Z,97.71
2018-06-12T02:55:27.411Z,97.23
2018-06-12T02:56:27.403Z,96.94
2018-06-12T02:57:27.398Z,97.61
2018-06-12T02:58:27.390Z,98.00
2018-06-12T02:59:27.793Z,97.90
2018-06-12T03:00:27.379Z,97.52
2018-06-12T03:01:27.373Z,97.42
2018-06-12T03:02:27.366Z,97.23
2018-06-12T03:03:27.360Z,97.52
2018-06-12T03:04:27.356Z,97.52
2018-06-12T03:05:27.349Z,97.04
2018-06-12T03:06:27.343Z,97.61
2018-06-12T03:07:27.342Z,97.42
2018-06-12T03:08:27.334Z,97.61
2018-06-12T03:09:27.326Z,98.00
2018-06-12T03:10:27.321Z,97.80
2018-06-12T03:11:27.317Z,98.28
2018-06-12T03:12:27.306Z,98.28
2018-06-12T03:13:27.305Z,98.28
2018-06-12T03:14:27.294Z,98.76
2018-06-12T03:15:27.289Z,99.33
2018-06-12T03:16:27.283Z,99.62
2018-06-12T03:17:27.282Z,99.62
2018-06-12T03:18:27.270Z,99.99
2018-06-12T03:19:27.265Z,99.52
2018-06-12T03:20:27.260Z,99.43
2018-06-12T03:21:27.252Z,99.99
2018-06-12T03:22:27.245Z,99.99
2018-06-12T03:23:27.244Z,99.99
2018-06-12T03:24:27.234Z,99.99
2018-06-12T03:25:27.228Z,99.99
2018-06-12T03:26:27.223Z,99.99
2018-06-12T03:27:27.215Z,99.99
2018-06-12T03:28:27.413Z,99.99
2018-06-12T03:29:27.203Z,99.99
2018-06-12T03:30:27.196Z,99.99
2018-06-12T03:31:27.190Z,99.99
2018-06-12T03:32:27.184Z,99.99
2018-06-12T03:33:27.178Z,99.99
2018-06-12T03:34:27.171Z,99.99
2018-06-12T03:35:27.170Z,99.99
2018-06-12T03:36:27.163Z,99.99
2018-06-12T03:37:27.156Z,99.99
2018-06-12T03:38:27.149Z,99.99
2018-06-12T03:39:27.139Z,99.99
2018-06-12T03:40:27.136Z,99.99
2018-06-12T03:41:27.127Z,99.99
2018-06-12T03:42:27.124Z,99.99
2018-06-12T03:43:27.114Z,99.99
2018-06-12T03:44:27.110Z,99.99
2018-06-12T03:45:27.102Z,99.99
2018-06-12T03:46:27.095Z,99.99
2018-06-12T03:47:27.093Z,99.99
2018-06-12T03:48:27.082Z,99.99
2018-06-12T03:49:27.076Z,99.99
2018-06-12T03:50:27.072Z,99.99
2018-06-12T03:51:27.065Z,99.99
2018-06-12T03:52:27.058Z,99.99
2018-06-12T03:53:27.053Z,99.99
2018-06-12T03:54:27.045Z,99.99
2018-06-12T03:55:27.044Z,99.99
2018-06-12T03:56:27.033Z,99.99
2018-06-12T03:57:27.042Z,99.99
2018-06-12T03:58:27.020Z,99.99
2018-06-12T03:59:27.012Z,99.99
2018-06-12T04:00:27.008Z,99.99
2018-06-12T04:01:27.002Z,99.99
2018-06-12T04:02:26.993Z,99.99
2018-06-12T04:03:26.989Z,99.99
2018-06-12T04:04:26.981Z,99.99
2018-06-12T04:05:26.975Z,99.99
2018-06-12T04:06:26.968Z,99.99
2018-06-12T04:07:26.962Z,99.99
2018-06-12T04:08:26.956Z,99.99
2018-06-12T04:09:26.996Z,99.99
2018-06-12T04:10:27.148Z,99.99
2018-06-12T04:11:26.937Z,99.99
2018-06-12T04:12:26.931Z,99.99
2018-06-12T04:13:26.925Z,99.99
2018-06-12T04:14:26.917Z,99.99
2018-06-12T04:15:26.920Z,99.99
2018-06-12T04:16:26.909Z,99.99
2018-06-12T04:17:26.900Z,99.99
2018-06-12T04:18:26.896Z,99.99
2018-06-12T04:19:26.889Z,99.99
2018-06-12T04:20:26.924Z,99.99
2018-06-12T04:21:26.874Z,99.99
2018-06-12T04:22:26.870Z,99.99
2018-06-12T04:23:26.864Z,99.99
2018-06-12T04:24:26.855Z,99.99
2018-06-12T04:25:26.849Z,99.99
2018-06-12T04:26:26.842Z,99.99
2018-06-12T04:27:26.841Z,99.99
2018-06-12T04:28:27.032Z,99.99
2018-06-12T04:29:26.825Z,99.99
2018-06-12T04:30:26.819Z,99.99
2018-06-12T04:31:26.812Z,99.99
2018-06-12T04:32:26.806Z,99.99
2018-06-12T04:33:26.804Z,99.99
2018-06-12T04:34:26.793Z,99.99
2018-06-12T04:35:26.787Z,99.99
2018-06-12T04:36:26.785Z,99.99
2018-06-12T04:37:26.780Z,99.99
2018-06-12T04:38:26.768Z,99.99
2018-06-12T04:39:26.762Z,99.99
2018-06-12T04:40:26.760Z,99.99
2018-06-12T04:41:26.751Z,99.99
2018-06-12T04:42:26.744Z,99.99
2018-06-12T04:43:26.750Z,99.99
2018-06-12T04:44:26.733Z,99.99
2018-06-12T04:45:26.726Z,99.99
2018-06-12T04:46:26.722Z,99.99
2018-06-12T04:47:26.714Z,99.99
2018-06-12T04:48:26.713Z,99.99
2018-06-12T04:49:26.702Z,99.99
2018-06-12T04:50:26.703Z,99.99
2018-06-12T04:51:26.689Z,99.99
2018-06-12T04:52:26.687Z,99.99
2018-06-12T04:53:26.678Z,99.99
2018-06-12T04:54:26.675Z,99.99
2018-06-12T04:55:26.670Z,99.99
2018-06-12T04:56:26.659Z,99.99
2018-06-12T04:57:26.655Z,99.99
2018-06-12T04:58:26.646Z,99.99
2018-06-12T04:59:26.643Z,99.99
2018-06-12T05:00:26.635Z,99.99
2018-06-12T05:01:26.629Z,99.99
2018-06-12T05:02:26.624Z,99.99
2018-06-12T05:03:26.618Z,99.99
2018-06-12T05:04:26.614Z,99.99
2018-06-12T05:05:26.606Z,99.99
2018-06-12T05:06:26.601Z,99.99
2018-06-12T05:07:26.597Z,99.99
2018-06-12T05:08:26.595Z,99.99
2018-06-12T05:09:26.590Z,99.99
2018-06-12T05:10:26.811Z,99.99
2018-06-12T05:11:26.777Z,99.99
2018-06-12T05:12:26.565Z,99.72
2018-06-12T05:13:26.559Z,99.99
2018-06-12T05:14:26.558Z,99.99
2018-06-12T05:15:26.749Z,99.99
2018-06-12T05:16:26.541Z,99.99
2018-06-12T05:17:26.536Z,99.99
2018-06-12T05:18:26.531Z,99.99
2018-06-12T05:19:26.524Z,99.72
2018-06-12T05:20:26.518Z,99.91
2018-06-12T05:21:26.513Z,99.43
2018-06-12T05:22:26.507Z,99.15
2018-06-12T05:23:26.507Z,99.15
2018-06-12T05:24:26.495Z,99.15
2018-06-12T05:25:26.503Z,99.43
2018-06-12T05:26:26.488Z,99.62
2018-06-12T05:27:26.478Z,99.99
2018-06-12T05:28:26.477Z,99.99
2018-06-12T05:29:26.469Z,99.99
2018-06-12T05:30:26.461Z,99.99
2018-06-12T05:31:26.455Z,99.99
2018-06-12T05:32:26.450Z,99.62
2018-06-12T05:33:26.444Z,99.43
2018-06-12T05:34:26.446Z,99.99
2018-06-12T05:35:26.433Z,99.99
2018-06-12T05:36:26.428Z,99.99
2018-06-12T05:37:26.421Z,99.43
2018-06-12T05:38:26.415Z,99.33
2018-06-12T05:39:26.411Z,99.05
2018-06-12T05:41:26.405Z,99.99
2018-06-12T05:42:26.396Z,99.05
2018-06-12T05:43:26.387Z,98.95
2018-06-12T05:44:26.381Z,98.95
2018-06-12T05:45:26.376Z,98.86
2018-06-12T05:46:26.370Z,99.05
2018-06-12T05:47:26.369Z,98.95
2018-06-12T05:48:26.360Z,99.15
2018-06-12T05:49:26.354Z,98.95
2018-06-12T05:50:26.347Z,98.86
2018-06-12T05:51:26.343Z,99.24
2018-06-12T05:52:26.336Z,98.86
2018-06-12T05:53:26.332Z,99.15
2018-06-12T05:54:26.326Z,99.15
2018-06-12T05:55:26.323Z,98.95
2018-06-12T05:56:26.318Z,99.81
2018-06-12T05:57:26.317Z,99.81
2018-06-12T05:58:26.307Z,98.76
2018-06-12T05:59:26.297Z,99.24
2018-06-12T06:00:26.292Z,98.95
2018-06-12T06:01:26.287Z,99.10
2018-06-12T06:02:26.281Z,98.95
2018-06-12T06:03:26.280Z,98.71
2018-06-12T06:04:26.271Z,98.28
2018-06-12T06:05:26.271Z,98.38
2018-06-12T06:06:26.262Z,98.71
2018-06-12T06:07:26.255Z,98.91
2018-06-12T06:08:26.250Z,98.91
2018-06-12T06:09:26.244Z,98.05
2018-06-12T06:10:26.238Z,99.10
2018-06-12T06:11:26.237Z,97.95
2018-06-12T06:12:26.231Z,98.14
2018-06-12T06:13:26.225Z,98.05
2018-06-12T06:14:26.218Z,97.95
2018-06-12T06:15:26.214Z,98.05
2018-06-12T06:16:26.213Z,96.80
2018-06-12T06:17:26.207Z,97.18
2018-06-12T06:18:26.200Z,97.95
2018-06-12T06:19:26.191Z,98.05
2018-06-12T06:20:26.185Z,97.95
2018-06-12T06:21:26.180Z,97.75
2018-06-12T06:22:26.198Z,97.85
2018-06-12T06:23:26.172Z,97.28
2018-06-12T06:24:26.366Z,97.85
2018-06-12T06:25:26.159Z,98.05
2018-06-12T06:26:26.153Z,97.66
2018-06-12T06:27:26.153Z,98.05
2018-06-12T06:28:26.145Z,97.95
2018-06-12T06:29:26.138Z,98.43
2018-06-12T06:30:26.133Z,97.28
2018-06-12T06:31:26.128Z,96.99
2018-06-12T06:32:26.127Z,96.89
2018-06-12T06:33:26.118Z,97.47
2018-06-12T06:34:26.115Z,97.38
2018-06-12T06:35:26.310Z,97.56
2018-06-12T06:36:26.103Z,96.99
2018-06-12T06:37:26.106Z,96.70
2018-06-12T06:38:26.092Z,96.89
2018-06-12T06:39:26.090Z,96.80
2018-06-12T06:40:26.083Z,96.61
2018-06-12T06:42:26.073Z,96.89
2018-06-12T06:43:26.070Z,96.99
2018-06-12T06:44:26.063Z,97.14
2018-06-12T06:45:26.063Z,95.98
2018-06-12T06:46:26.056Z,95.56
2018-06-12T06:47:26.050Z,95.65
2018-06-12T06:48:26.043Z,95.84
2018-06-12T06:49:26.038Z,96.18
2018-06-12T06:50:26.033Z,96.94
2018-06-12T06:51:26.029Z,97.14
2018-06-12T06:52:26.026Z,96.75
2018-06-12T06:53:26.019Z,95.89
2018-06-12T06:54:26.020Z,95.31
2018-06-12T06:55:26.212Z,95.31
2018-06-12T06:56:26.008Z,95.31
2018-06-12T06:57:26.004Z,94.64
2018-06-12T06:58:25.995Z,94.55
2018-06-12T06:59:25.992Z,95.12
2018-06-12T07:00:25.991Z,95.31
2018-06-12T07:01:26.184Z,94.74
2018-06-12T07:02:25.977Z,94.26
2018-06-12T07:03:25.972Z,93.69
2018-06-12T07:04:25.973Z,93.88
2018-06-12T07:05:25.968Z,94.17
2018-06-12T07:06:25.959Z,94.55
2018-06-12T07:07:25.954Z,94.26
2018-06-12T07:08:25.954Z,94.35
2018-06-12T07:09:25.947Z,94.64
2018-06-12T07:10:25.947Z,94.07
2018-06-12T07:11:25.937Z,94.17
2018-06-12T07:12:25.932Z,94.07
2018-06-12T07:13:25.929Z,93.98
2018-06-12T07:14:25.923Z,94.07
2018-06-12T07:15:25.926Z,94.26
2018-06-12T07:16:25.913Z,93.88
2018-06-12T07:17:25.909Z,93.40
2018-06-12T07:18:25.906Z,94.45
2018-06-12T07:19:25.901Z,95.03
2018-06-12T07:20:25.895Z,94.26
2018-06-12T07:21:25.891Z,94.07
2018-06-12T07:22:25.888Z,93.30
2018-06-12T07:23:25.882Z,92.92
2018-06-12T07:24:25.881Z,93.78
2018-06-12T07:25:25.878Z,93.78
2018-06-12T07:26:25.869Z,93.21
2018-06-12T07:27:25.864Z,93.49
2018-06-12T07:28:25.860Z,94.26
2018-06-12T07:29:25.856Z,94.45
2018-06-12T07:30:25.851Z,94.07
2018-06-12T07:31:25.846Z,93.30
2018-06-12T07:32:25.843Z,93.02
2018-06-12T07:33:25.838Z,92.44
2018-06-12T07:34:25.833Z,92.25
2018-06-12T07:35:25.830Z,92.25
2018-06-12T07:36:25.826Z,92.63
2018-06-12T07:37:25.839Z,92.92
2018-06-12T07:38:25.818Z,92.92
2018-06-12T07:39:25.813Z,92.54
2018-06-12T07:40:25.809Z,92.25
2018-06-12T07:41:25.807Z,92.58
2018-06-12T07:42:25.803Z,92.77
2018-06-12T07:43:25.845Z,92.58
2018-06-12T07:44:25.799Z,92.10
2018-06-12T07:45:25.793Z,91.82
2018-06-12T07:46:25.784Z,91.63
2018-06-12T07:47:25.780Z,92.25
2018-06-12T07:48:25.783Z,91.86
2018-06-12T07:49:25.776Z,92.15
2018-06-12T07:50:25.772Z,92.06
2018-06-12T07:51:25.767Z,91.96
2018-06-12T07:52:25.764Z,91.49
2018-06-12T07:53:25.756Z,91.67
2018-06-12T07:54:25.755Z,92.10
2018-06-12T07:55:25.750Z,92.06
2018-06-12T07:56:25.745Z,91.72
2018-06-12T07:57:25.742Z,92.06
2018-06-12T07:58:25.734Z,91.77
2018-06-12T07:59:25.733Z,91.91
2018-06-12T08:00:25.726Z,91.00
2018-06-12T08:01:25.729Z,91.05
2018-06-12T08:02:25.722Z,90.53
2018-06-12T08:03:25.716Z,92.30
2018-06-12T08:04:25.713Z,92.10
2018-06-12T08:05:25.710Z,91.34
2018-06-12T08:06:25.701Z,91.24
2018-06-12T08:07:25.697Z,90.76
2018-06-12T08:08:25.694Z,91.19
2018-06-12T08:09:25.690Z,90.19
2018-06-12T08:10:25.685Z,91.24
2018-06-12T08:11:25.681Z,91.05
2018-06-12T08:12:25.676Z,91.63
2018-06-12T08:13:25.673Z,90.86
2018-06-12T08:14:25.668Z,91.05
2018-06-12T08:15:25.669Z,91.14
2018-06-12T08:16:25.660Z,91.43
2018-06-12T08:17:25.657Z,90.86
2018-06-12T08:18:25.652Z,91.24
2018-06-12T08:19:25.648Z,90.86
2018-06-12T08:20:25.645Z,90.76
2018-06-12T08:21:25.650Z,91.14
2018-06-12T08:22:25.639Z,90.67
2018-06-12T08:23:25.636Z,90.95
2018-06-12T08:24:25.634Z,90.09
2018-06-12T08:25:25.626Z,90.76
2018-06-12T08:26:25.622Z,90.47
2018-06-12T08:27:25.618Z,90.81
2018-06-12T08:28:25.614Z,89.75
2018-06-12T08:29:25.612Z,89.85
2018-06-12T08:30:25.787Z,89.94
2018-06-12T08:31:25.603Z,88.60
2018-06-12T08:32:25.603Z,89.75
2018-06-12T08:33:25.603Z,88.51
2018-06-12T08:34:25.598Z,88.51
2018-06-12T08:35:25.589Z,88.31
2018-06-12T08:36:25.588Z,87.35
2018-06-12T08:37:25.583Z,88.31
2018-06-12T08:38:25.586Z,87.84
2018-06-12T08:39:25.576Z,88.70
2018-06-12T08:40:25.777Z,88.41
2018-06-12T08:41:25.570Z,89.18
2018-06-12T08:42:25.566Z,89.41
2018-06-12T08:43:25.564Z,89.22
2018-06-12T08:44:25.560Z,87.45
2018-06-12T08:45:25.559Z,87.55
2018-06-12T08:46:25.625Z,88.12
2018-06-12T08:47:25.555Z,88.31
2018-06-12T08:49:25.546Z,89.27
2018-06-12T08:50:25.543Z,88.41
2018-06-12T08:51:25.544Z,87.35
2018-06-12T08:52:25.538Z,88.51
2018-06-12T08:53:25.538Z,88.31
2018-06-12T08:54:25.530Z,88.22
2018-06-12T08:55:25.527Z,88.70
2018-06-12T08:56:25.527Z,88.41
2018-06-12T08:57:25.522Z,88.02
2018-06-12T08:58:25.519Z,89.79
2018-06-12T08:59:25.518Z,88.74
2018-06-12T09:00:25.513Z,87.88
2018-06-12T09:01:25.512Z,87.98
2018-06-12T09:02:25.505Z,87.26
2018-06-12T09:03:25.502Z,87.16
2018-06-12T09:04:25.499Z,87.45
2018-06-12T09:05:25.499Z,86.58
2018-06-12T09:06:25.492Z,88.31
2018-06-12T09:07:25.489Z,87.16
2018-06-12T09:08:25.486Z,87.84
2018-06-12T09:09:25.482Z,88.41
2018-06-12T09:10:25.479Z,88.22
2018-06-12T09:11:25.477Z,87.74
2018-06-12T09:12:25.474Z,87.93
2018-06-12T09:13:25.478Z,87.55
2018-06-12T09:14:25.466Z,87.07
2018-06-12T09:15:25.464Z,87.16
2018-06-12T09:16:25.465Z,86.97
2018-06-12T09:17:25.456Z,87.26
2018-06-12T09:18:25.455Z,87.16
2018-06-12T09:19:25.449Z,87.55
2018-06-12T09:20:25.445Z,87.07
2018-06-12T09:21:25.445Z,86.40
2018-06-12T09:22:25.438Z,86.97
2018-06-12T09:23:25.439Z,86.88
2018-06-12T09:24:25.436Z,86.88
2018-06-12T09:25:25.428Z,85.82
2018-06-12T09:26:25.424Z,86.11
2018-06-12T09:27:25.421Z,85.63
2018-06-12T09:28:25.424Z,86.30
2018-06-12T09:29:25.414Z,86.01
2018-06-12T09:30:25.410Z,85.82
2018-06-12T09:31:25.414Z,84.95
2018-06-12T09:32:25.406Z,84.95
2018-06-12T09:33:25.401Z,85.67
2018-06-12T09:34:25.401Z,85.86
2018-06-12T09:35:25.399Z,85.86
2018-06-12T09:36:25.391Z,85.67
2018-06-12T09:37:25.391Z,86.92
2018-06-12T09:38:25.388Z,86.92
2018-06-12T09:39:25.381Z,85.96
2018-06-12T09:40:25.380Z,85.86
2018-06-12T09:41:25.384Z,85.10
2018-06-12T09:42:25.378Z,85.10
2018-06-12T09:43:25.377Z,85.28
2018-06-12T09:44:25.370Z,85.86
2018-06-12T09:45:25.364Z,85.48
2018-06-12T09:46:25.364Z,85.77
2018-06-12T09:47:25.359Z,86.05
2018-06-12T09:48:25.359Z,86.82
2018-06-12T09:49:25.356Z,86.68
2018-06-12T09:50:25.351Z,87.35
2018-06-12T09:51:25.347Z,87.54
2018-06-12T09:52:25.349Z,85.71
2018-06-12T09:53:25.341Z,85.33
2018-06-12T09:54:25.338Z,86.54
2018-06-12T09:55:25.340Z,87.59
2018-06-12T09:56:25.332Z,87.40
2018-06-12T09:57:25.335Z,87.11
2018-06-12T09:58:25.326Z,87.68
2018-06-12T09:59:25.528Z,87.73
2018-06-12T10:00:25.325Z,87.05
2018-06-12T10:01:25.323Z,88.65
2018-06-12T10:02:25.317Z,88.40
2018-06-12T10:03:25.313Z,88.59
2018-06-12T10:04:25.313Z,87.82
2018-06-12T10:05:25.309Z,87.35
2018-06-12T10:06:25.305Z,87.15
2018-06-12T10:07:25.306Z,86.15
2018-06-12T10:08:25.304Z,85.58
2018-06-12T10:09:25.304Z,85.77
2018-06-12T10:11:25.296Z,86.54
2018-06-12T10:12:25.290Z,87.68
2018-06-12T10:13:25.289Z,86.82
2018-06-12T10:14:25.284Z,86.54
2018-06-12T10:15:25.282Z,86.72
2018-06-12T10:16:25.279Z,88.07
2018-06-12T10:17:25.277Z,88.45
2018-06-12T10:18:25.279Z,87.30
2018-06-12T10:19:25.271Z,87.98
2018-06-12T10:20:25.275Z,87.16
2018-06-12T10:21:25.272Z,87.26
2018-06-12T10:22:25.265Z,88.60
2018-06-12T10:23:25.263Z,88.98
2018-06-12T10:24:25.257Z,90.23
2018-06-12T10:25:25.254Z,87.84
2018-06-12T10:26:25.250Z,88.27
2018-06-12T10:27:25.247Z,90.04
2018-06-12T10:28:25.244Z,88.79
2018-06-12T10:29:25.241Z,88.17
2018-06-12T10:30:25.238Z,87.98
2018-06-12T10:31:25.238Z,88.94
2018-06-12T10:32:25.235Z,90.00
2018-06-12T10:33:25.230Z,90.76
2018-06-12T10:34:25.226Z,90.76
2018-06-12T10:35:25.219Z,89.04
2018-06-12T10:36:25.215Z,89.04
2018-06-12T10:37:25.256Z,88.94
2018-06-12T10:38:25.207Z,89.57
2018-06-12T10:39:25.206Z,90.72
2018-06-12T10:40:25.199Z,91.86
2018-06-12T10:41:25.195Z,93.21
2018-06-12T10:42:25.192Z,92.15
2018-06-12T10:43:25.189Z,93.21
2018-06-12T10:44:25.186Z,94.35
2018-06-12T10:45:25.179Z,93.02
2018-06-12T10:46:25.174Z,94.35
2018-06-12T10:47:25.172Z,96.75
2018-06-12T10:48:25.167Z,95.98
2018-06-12T10:49:25.166Z,95.60
2018-06-12T10:50:25.157Z,96.08
2018-06-12T10:51:25.152Z,97.23
2018-06-12T10:52:25.148Z,97.61
2018-06-12T10:53:25.148Z,98.00
2018-06-12T10:54:25.143Z,96.80
2018-06-12T10:56:25.176Z,97.56
2018-06-12T10:57:25.336Z,97.28
2018-06-12T10:58:25.125Z,97.66
2018-06-12T10:59:25.120Z,99.00
2018-06-12T11:00:25.113Z,98.81
2018-06-12T11:01:25.115Z,99.67
2018-06-12T11:02:25.111Z,99.96
2018-06-12T11:03:25.100Z,99.99
2018-06-12T11:04:25.095Z,99.99
2018-06-12T11:05:25.097Z,99.19
2018-06-12T11:06:25.089Z,99.99
2018-06-12T11:07:25.080Z,99.99
2018-06-12T11:08:25.076Z,99.99
2018-06-12T11:09:25.074Z,99.48
2018-06-12T11:10:25.067Z,99.99
2018-06-12T11:11:25.065Z,99.48
2018-06-12T11:12:25.059Z,99.99
2018-06-12T11:13:25.053Z,99.99
2018-06-12T11:14:25.048Z,99.99
2018-06-12T11:15:25.044Z,99.99
2018-06-12T11:16:25.042Z,99.99
2018-06-12T11:17:25.034Z,99.99
2018-06-12T11:18:25.030Z,99.99
2018-06-12T11:19:25.024Z,99.99
2018-06-12T11:20:25.019Z,99.99
2018-06-12T11:21:25.015Z,99.99
2018-06-12T11:22:25.009Z,99.99
2018-06-12T11:23:25.007Z,99.99
2018-06-12T11:24:25.000Z,99.99
2018-06-12T11:25:24.995Z,99.99
2018-06-12T11:26:24.994Z,99.99
2018-06-12T11:27:24.996Z,99.99
2018-06-12T11:28:24.980Z,99.99
2018-06-12T11:29:24.975Z,99.99
2018-06-12T11:30:24.972Z,99.99
2018-06-12T11:31:24.965Z,99.99
2018-06-12T11:32:24.963Z,99.99
2018-06-12T11:33:24.959Z,99.99
2018-06-12T11:34:24.950Z,99.99
2018-06-12T11:35:24.950Z,99.99
2018-06-12T11:36:24.946Z,99.99
2018-06-12T11:37:24.937Z,99.99
2018-06-12T11:38:24.931Z,99.99
2018-06-12T11:39:24.927Z,99.99
2018-06-12T11:40:24.923Z,99.99
2018-06-12T11:41:24.918Z,99.99
2018-06-12T11:42:24.916Z,99.99
2018-06-12T11:43:24.910Z,99.99
2018-06-12T11:44:24.906Z,99.99
2018-06-12T11:45:24.901Z,99.99
2018-06-12T11:46:24.897Z,99.99
2018-06-12T11:47:24.895Z,99.99
2018-06-12T11:48:24.889Z,99.99
2018-06-12T11:49:24.884Z,99.99
2018-06-12T11:50:24.879Z,99.99
2018-06-12T11:51:24.874Z,99.99
2018-06-12T11:52:24.871Z,99.99
2018-06-12T11:53:24.870Z,99.99
2018-06-12T11:54:24.861Z,99.99
2018-06-12T11:55:24.861Z,99.99
2018-06-12T11:56:24.854Z,99.99
2018-06-12T11:57:24.854Z,99.99
2018-06-12T11:58:24.844Z,99.99
2018-06-12T11:59:24.842Z,99.99
2018-06-12T12:00:24.835Z,99.99
2018-06-12T12:01:24.831Z,99.99
2018-06-12T12:02:24.826Z,99.99
2018-06-12T12:03:24.823Z,99.99
2018-06-12T12:04:24.821Z,99.99
2018-06-12T12:05:24.820Z,99.99
2018-06-12T12:06:24.808Z,99.99
2018-06-12T12:07:24.804Z,99.99
2018-06-12T12:08:24.800Z,99.99
2018-06-12T12:09:24.796Z,99.99
2018-06-12T12:10:24.790Z,99.99
2018-06-12T12:11:24.790Z,99.99
2018-06-12T12:12:24.792Z,99.99
2018-06-12T12:13:24.782Z,99.99
2018-06-12T12:14:24.781Z,99.99
2018-06-12T12:15:24.769Z,99.99
2018-06-12T12:16:24.770Z,99.99
2018-06-12T12:17:24.760Z,99.99
2018-06-12T12:18:24.754Z,99.99
2018-06-12T12:19:24.755Z,99.99
2018-06-12T12:20:24.950Z,99.99
2018-06-12T12:21:24.746Z,99.99
2018-06-12T12:22:24.748Z,99.99
2018-06-12T12:23:24.781Z,99.99
2018-06-12T12:24:24.727Z,99.99
2018-06-12T12:25:24.724Z,99.99
2018-06-12T12:26:24.719Z,99.99
2018-06-12T12:27:24.714Z,99.99
2018-06-12T12:28:24.709Z,99.99
2018-06-12T12:29:24.705Z,99.99
2018-06-12T12:30:24.701Z,99.99
2018-06-12T12:31:24.696Z,99.99
2018-06-12T12:32:24.691Z,99.99
2018-06-12T12:33:24.689Z,99.99
2018-06-12T12:34:24.681Z,99.99
2018-06-12T12:35:24.677Z,99.99
2018-06-12T12:36:24.673Z,99.99
2018-06-12T12:37:24.673Z,99.99
2018-06-12T12:38:24.663Z,99.99
2018-06-12T12:39:24.660Z,99.99
2018-06-12T12:40:24.655Z,99.99
2018-06-12T12:41:24.650Z,99.99
2018-06-12T12:42:24.645Z,99.99
2018-06-12T12:43:24.645Z,99.99
2018-06-12T12:44:24.639Z,99.99
2018-06-12T12:45:24.632Z,99.99
2018-06-12T12:46:24.626Z,99.99
2018-06-12T12:47:24.827Z,99.99
2018-06-12T12:48:24.639Z,99.99
2018-06-12T12:49:24.614Z,99.99
2018-06-12T12:50:24.609Z,99.99
2018-06-12T12:51:24.609Z,99.99
2018-06-12T12:52:24.601Z,99.99
2018-06-12T12:53:24.597Z,99.99
2018-06-12T12:54:24.594Z,99.99
2018-06-12T12:55:24.590Z,99.99
2018-06-12T12:56:24.583Z,99.99
2018-06-12T12:57:24.579Z,99.99